createdAt,value
2022-12-19T00:00:09.730Z,21.70
2022-12-19T00:02:42.685Z,17.30
2022-12-19T00:05:11.377Z,18.08
2022-12-19T00:07:39.052Z,19.12
2022-12-19T00:10:07.943Z,19.42
2022-12-19T00:12:35.681Z,18.23
2022-12-19T00:15:03.479Z,20.27
2022-12-19T00:17:31.164Z,18.87
2022-12-19T00:19:58.863Z,18.58
2022-12-19T00:22:26.808Z,17.58
2022-12-19T00:24:54.484Z,19.75
2022-12-19T00:27:22.213Z,17.90
2022-12-19T00:29:49.877Z,20.67
2022-12-19T00:32:17.463Z,19.00
2022-12-19T00:34:45.089Z,18.00
2022-12-19T00:37:13.011Z,16.62
2022-12-19T00:39:40.697Z,19.20
2022-12-19T00:42:08.495Z,17.83
2022-12-19T00:44:36.156Z,15.98
2022-12-19T00:47:03.865Z,17.77
2022-12-19T00:49:31.530Z,17.95
2022-12-19T00:52:01.109Z,17.98
2022-12-19T00:54:28.774Z,19.67
2022-12-19T00:56:56.872Z,16.77
2022-12-19T00:59:26.723Z,17.77
2022-12-19T01:01:54.907Z,17.25
2022-12-19T01:04:31.708Z,18.60
2022-12-19T01:07:02.964Z,18.60
2022-12-19T01:09:31.839Z,17.87
2022-12-19T01:12:18.043Z,18.83
2022-12-19T01:14:46.003Z,17.87
2022-12-19T01:17:13.672Z,16.98
2022-12-19T01:19:44.370Z,18.73
2022-12-19T01:22:13.655Z,16.83
2022-12-19T01:24:42.327Z,17.65
2022-12-19T01:27:10.203Z,17.12
2022-12-19T01:29:52.839Z,19.12
2022-12-19T01:32:21.742Z,17.60
2022-12-19T01:34:49.463Z,18.23
2022-12-19T01:37:17.216Z,16.20
2022-12-19T01:39:46.022Z,16.33
2022-12-19T01:42:23.191Z,16.37
2022-12-19T01:45:33.393Z,18.00
2022-12-19T01:48:08.330Z,17.92
2022-12-19T01:50:44.273Z,17.10
2022-12-19T01:53:34.635Z,16.73
2022-12-19T01:56:10.144Z,19.85
2022-12-19T01:58:41.349Z,20.08
2022-12-19T02:01:09.173Z,17.65
2022-12-19T02:03:40.054Z,18.27
2022-12-19T02:06:09.453Z,19.08
2022-12-19T02:08:38.473Z,18.75
2022-12-19T02:11:06.287Z,19.98
2022-12-19T02:13:34.415Z,20.52
2022-12-19T02:16:49.089Z,16.62
2022-12-19T02:19:16.704Z,17.17
2022-12-19T02:21:54.959Z,20.48
2022-12-19T02:24:43.682Z,21.27
2022-12-19T02:27:48.766Z,19.30
2022-12-19T02:30:35.433Z,18.17
2022-12-19T02:33:04.915Z,17.95
2022-12-19T02:35:41.489Z,18.05
2022-12-19T02:38:33.115Z,17.20
2022-12-19T02:41:46.850Z,19.27
2022-12-19T02:44:21.527Z,16.92
2022-12-19T02:46:51.367Z,17.85
2022-12-19T02:49:21.865Z,18.42
2022-12-19T02:51:57.953Z,17.90
2022-12-19T02:54:26.481Z,16.65
2022-12-19T02:57:06.273Z,17.67
2022-12-19T03:00:03.355Z,18.60
2022-12-19T03:02:59.819Z,18.17
2022-12-19T03:05:48.431Z,15.20
2022-12-19T03:08:21.965Z,17.23
2022-12-19T03:11:09.858Z,15.50
2022-12-19T03:13:58.219Z,16.42
2022-12-19T03:16:26.692Z,16.87
2022-12-19T03:18:54.977Z,18.02
2022-12-19T03:21:35.878Z,19.20
2022-12-19T03:24:05.800Z,19.27
2022-12-19T03:26:38.908Z,17.20
2022-12-19T03:29:15.965Z,16.27
2022-12-19T03:31:46.294Z,15.70
2022-12-19T03:34:22.732Z,17.90
2022-12-19T03:36:57.168Z,17.27
2022-12-19T03:39:28.042Z,17.08
2022-12-19T03:42:16.271Z,16.23
2022-12-19T03:44:44.795Z,20.05
2022-12-19T03:47:30.319Z,20.02
2022-12-19T03:49:58.283Z,17.90
2022-12-19T03:52:31.919Z,17.73
2022-12-19T03:55:12.019Z,17.90
2022-12-19T03:58:05.611Z,18.08
2022-12-19T04:00:37.667Z,15.13
2022-12-19T04:03:06.797Z,16.50
2022-12-19T04:05:36.623Z,18.65
2022-12-19T04:08:08.848Z,17.27
2022-12-19T04:10:51.539Z,17.15
2022-12-19T04:13:24.866Z,16.42
2022-12-19T04:16:08.528Z,17.25
2022-12-19T04:18:37.553Z,18.27
2022-12-19T04:21:12.781Z,18.27
2022-12-19T04:23:46.486Z,17.35
2022-12-19T04:26:17.020Z,16.17
2022-12-19T04:28:51.931Z,17.52
2022-12-19T04:31:21.537Z,16.48
2022-12-19T04:33:49.452Z,15.55
2022-12-19T04:36:17.295Z,17.37
2022-12-19T04:38:45.221Z,15.98
2022-12-19T04:41:13.610Z,16.37
2022-12-19T04:43:41.316Z,16.42
2022-12-19T04:46:09.010Z,16.60
2022-12-19T04:48:38.078Z,17.15
2022-12-19T04:51:06.436Z,16.15
2022-12-19T04:53:34.365Z,16.58
2022-12-19T04:56:07.232Z,17.35
2022-12-19T04:58:36.099Z,16.80
2022-12-19T05:01:05.735Z,17.92
2022-12-19T05:03:34.300Z,16.55
2022-12-19T05:06:13.500Z,16.25
2022-12-19T05:08:43.700Z,16.30
2022-12-19T05:11:19.259Z,18.35
2022-12-19T05:13:47.736Z,17.40
2022-12-19T05:16:16.902Z,16.70
2022-12-19T05:18:45.294Z,16.83
2022-12-19T05:21:13.563Z,20.60
2022-12-19T05:23:41.591Z,18.92
2022-12-19T05:26:09.771Z,19.12
2022-12-19T05:28:37.544Z,18.70
2022-12-19T05:31:11.108Z,18.77
2022-12-19T05:33:39.510Z,19.17
2022-12-19T05:36:08.131Z,17.45
2022-12-19T05:38:36.571Z,17.85
2022-12-19T05:41:16.017Z,19.25
2022-12-19T05:43:50.578Z,19.23
2022-12-19T05:46:18.950Z,19.25
2022-12-19T05:48:47.106Z,19.73
2022-12-19T05:51:15.376Z,19.05
2022-12-19T05:53:44.458Z,22.45
2022-12-19T05:56:16.391Z,20.65
2022-12-19T05:58:45.983Z,21.92
2022-12-19T06:01:18.013Z,22.85
2022-12-19T06:03:46.294Z,20.02
2022-12-19T06:06:17.401Z,21.23
2022-12-19T06:08:45.524Z,18.77
2022-12-19T06:11:14.715Z,17.55
2022-12-19T06:13:42.754Z,21.30
2022-12-19T06:16:15.950Z,19.08
2022-12-19T06:18:45.780Z,19.67
2022-12-19T06:21:16.690Z,21.37
2022-12-19T06:23:44.996Z,22.58
2022-12-19T06:26:19.621Z,20.52
2022-12-19T06:28:49.720Z,21.65
2022-12-19T06:31:17.966Z,21.98
2022-12-19T06:33:46.041Z,23.02
2022-12-19T06:36:27.398Z,20.85
2022-12-19T06:38:57.113Z,22.17
2022-12-19T06:41:44.067Z,23.35
2022-12-19T06:44:14.723Z,21.75
2022-12-19T06:46:43.315Z,22.23
2022-12-19T06:49:12.305Z,21.73
2022-12-19T06:51:40.703Z,24.33
2022-12-19T06:54:08.459Z,22.65
2022-12-19T06:56:38.179Z,21.27
2022-12-19T06:59:06.897Z,23.02
2022-12-19T07:01:40.554Z,27.50
2022-12-19T07:04:12.206Z,27.08
2022-12-19T07:06:43.345Z,28.10
2022-12-19T07:09:13.780Z,25.20
2022-12-19T07:11:41.431Z,25.83
2022-12-19T07:14:09.112Z,24.95
2022-12-19T07:16:38.960Z,24.15
2022-12-19T07:19:08.896Z,24.35
2022-12-19T07:21:37.487Z,24.77
2022-12-19T07:24:06.320Z,25.08
2022-12-19T07:26:35.732Z,24.37
2022-12-19T07:29:03.740Z,23.98
2022-12-19T07:31:31.524Z,22.60
2022-12-19T07:33:59.742Z,23.45
2022-12-19T07:36:27.812Z,24.63
2022-12-19T07:38:55.564Z,23.05
2022-12-19T07:41:23.288Z,23.17
2022-12-19T07:43:51.021Z,23.90
2022-12-19T07:46:18.755Z,24.85
2022-12-19T07:48:46.453Z,22.58
2022-12-19T07:51:14.318Z,23.45
2022-12-19T07:53:41.977Z,25.45
2022-12-19T07:56:09.855Z,25.58
2022-12-19T07:58:37.466Z,26.00
2022-12-19T08:01:05.327Z,23.73
2022-12-19T08:03:34.754Z,24.85
2022-12-19T08:06:04.532Z,27.10
2022-12-19T08:08:32.782Z,23.10
2022-12-19T08:11:11.844Z,23.55
2022-12-19T08:13:46.140Z,20.58
2022-12-19T08:16:14.918Z,24.92
2022-12-19T08:18:42.841Z,26.02
2022-12-19T08:21:11.324Z,24.00
2022-12-19T08:23:42.287Z,24.40
2022-12-19T08:26:13.190Z,22.33
2022-12-19T08:28:41.095Z,24.37
2022-12-19T08:31:11.165Z,27.27
2022-12-19T08:33:39.630Z,32.53
2022-12-19T08:36:09.485Z,25.05
2022-12-19T08:38:38.165Z,30.85
2022-12-19T08:41:05.961Z,27.95
2022-12-19T08:43:34.920Z,31.62
2022-12-19T08:46:03.170Z,26.12
2022-12-19T08:48:31.975Z,25.20
2022-12-19T08:51:02.508Z,23.55
2022-12-19T08:53:32.196Z,23.95
2022-12-19T08:56:02.588Z,25.15
2022-12-19T08:58:31.471Z,24.95
2022-12-19T09:01:05.774Z,24.08
2022-12-19T09:03:51.273Z,22.62
2022-12-19T09:06:21.903Z,25.95
2022-12-19T09:08:49.721Z,25.37
2022-12-19T09:11:20.818Z,23.30
2022-12-19T09:13:49.572Z,25.25
2022-12-19T09:16:23.460Z,24.87
2022-12-19T09:18:56.209Z,24.17
2022-12-19T09:21:26.388Z,24.75
2022-12-19T09:23:57.322Z,22.65
2022-12-19T09:26:29.066Z,27.15
2022-12-19T09:29:02.263Z,25.23
2022-12-19T09:31:30.766Z,24.87
2022-12-19T09:33:58.793Z,25.08
2022-12-19T09:36:26.737Z,23.17
2022-12-19T09:38:56.927Z,23.83
2022-12-19T09:42:02.073Z,23.58
2022-12-19T09:44:32.701Z,23.20
2022-12-19T09:47:03.754Z,26.52
2022-12-19T09:49:41.969Z,23.90
2022-12-19T09:52:39.317Z,24.98
2022-12-19T09:55:29.530Z,22.90
2022-12-19T09:58:06.688Z,21.75
2022-12-19T10:00:43.368Z,22.62
2022-12-19T10:03:39.726Z,26.27
2022-12-19T10:07:20.388Z,25.37
2022-12-19T10:09:42.711Z,24.92
2022-12-19T10:12:45.063Z,23.70
2022-12-19T10:15:10.715Z,23.17
2022-12-19T10:17:56.919Z,24.52
2022-12-19T10:20:33.386Z,23.62
2022-12-19T10:23:22.847Z,24.17
2022-12-19T10:26:04.780Z,23.83
2022-12-19T10:28:47.296Z,23.42
2022-12-19T10:31:43.095Z,25.50
2022-12-19T10:34:21.431Z,26.02
2022-12-19T10:40:05.619Z,24.77
2022-12-19T10:42:56.424Z,24.17
2022-12-19T10:45:38.764Z,27.48
2022-12-19T10:48:14.421Z,25.52
2022-12-19T10:50:42.191Z,27.85
2022-12-19T10:53:14.615Z,25.40
2022-12-19T10:55:51.552Z,25.15
2022-12-19T10:58:23.976Z,28.10
2022-12-19T11:01:13.340Z,23.90
2022-12-19T11:03:44.226Z,23.98
2022-12-19T11:06:35.873Z,23.77
2022-12-19T11:09:24.570Z,25.48
2022-12-19T11:15:38.280Z,22.77
2022-12-19T11:20:02.735Z,25.05
2022-12-19T11:27:48.698Z,25.35
2022-12-19T11:29:34.132Z,25.70
2022-12-19T11:30:21.351Z,26.25
2022-12-19T11:30:35.711Z,23.87
2022-12-19T11:32:42.741Z,23.60
2022-12-19T11:35:17.810Z,25.17
2022-12-19T11:38:07.822Z,27.02
2022-12-19T11:40:51.461Z,26.23
2022-12-19T11:43:44.449Z,26.42
2022-12-19T11:46:23.786Z,23.17
2022-12-19T11:48:57.953Z,26.73
2022-12-19T11:51:25.585Z,25.58
2022-12-19T11:54:15.865Z,26.98
2022-12-19T11:56:43.822Z,26.25
2022-12-19T11:59:33.459Z,26.02
2022-12-19T12:02:01.243Z,22.37
2022-12-19T12:05:02.057Z,23.83
2022-12-19T12:09:09.530Z,22.02
2022-12-19T12:13:55.283Z,26.20
2022-12-19T12:22:27.863Z,23.80
2022-12-19T12:28:53.397Z,23.12
2022-12-19T12:31:10.258Z,24.55
2022-12-19T12:31:26.509Z,22.08
2022-12-19T12:31:53.300Z,22.85
2022-12-19T12:31:58.825Z,22.50
2022-12-19T12:35:30.666Z,21.90
2022-12-19T12:41:02.382Z,22.52
2022-12-19T12:44:08.999Z,24.33
2022-12-19T12:46:45.019Z,23.48
2022-12-19T12:49:41.586Z,25.40
2022-12-19T12:52:18.555Z,25.05
2022-12-19T12:54:49.947Z,26.33
2022-12-19T12:57:36.269Z,25.58
2022-12-19T13:00:31.594Z,23.30
2022-12-19T13:02:59.242Z,23.33
2022-12-19T13:05:39.137Z,23.60
2022-12-19T13:08:33.005Z,27.08
2022-12-19T13:11:04.431Z,25.40
2022-12-19T13:13:51.318Z,25.73
2022-12-19T13:16:46.936Z,24.60
2022-12-19T13:19:22.583Z,23.20
2022-12-19T13:22:24.069Z,23.27
2022-12-19T13:24:54.895Z,24.85
2022-12-19T13:27:22.640Z,25.70
2022-12-19T13:30:02.338Z,25.08
2022-12-19T13:32:42.252Z,23.08
2022-12-19T13:35:48.733Z,25.60
2022-12-19T13:40:01.588Z,23.55
2022-12-19T13:40:57.987Z,25.42
2022-12-19T13:43:47.135Z,24.10
2022-12-19T13:46:40.567Z,23.65
2022-12-19T13:49:34.707Z,21.73
2022-12-19T13:52:04.649Z,23.87
2022-12-19T13:54:37.768Z,23.42
2022-12-19T13:57:31.139Z,25.62
2022-12-19T14:00:03.033Z,24.45
2022-12-19T14:02:33.519Z,24.50
2022-12-19T14:06:16.873Z,23.45
2022-12-19T14:08:29.131Z,29.35
2022-12-19T14:11:46.787Z,22.35
2022-12-19T14:14:17.419Z,23.30
2022-12-19T14:16:47.560Z,24.05
2022-12-19T14:19:28.817Z,22.77
2022-12-19T14:22:15.645Z,24.73
2022-12-19T14:25:45.123Z,24.52
2022-12-19T14:28:21.684Z,23.00
2022-12-19T14:31:00.662Z,24.30
2022-12-19T14:33:44.124Z,24.27
2022-12-19T14:36:28.763Z,22.60
2022-12-19T14:39:25.381Z,23.83
2022-12-19T14:42:07.502Z,25.48
2022-12-19T14:52:26.182Z,23.62
2022-12-19T14:54:02.818Z,23.27
2022-12-19T14:54:17.435Z,21.35
2022-12-19T14:54:43.934Z,23.67
2022-12-19T14:56:33.652Z,28.17
2022-12-19T14:59:07.143Z,25.85
2022-12-19T15:01:36.824Z,23.70
2022-12-19T15:04:52.515Z,27.15
2022-12-19T15:07:14.314Z,23.92
2022-12-19T15:10:58.074Z,23.48
2022-12-19T15:14:50.608Z,24.10
2022-12-19T15:16:01.625Z,23.17
2022-12-19T15:18:43.497Z,22.00
2022-12-19T15:21:13.947Z,24.08
2022-12-19T15:23:42.017Z,24.33
2022-12-19T15:26:18.339Z,23.60
2022-12-19T15:28:54.614Z,25.08
2022-12-19T15:31:36.237Z,23.38
2022-12-19T15:34:36.819Z,23.80
2022-12-19T15:37:05.916Z,25.15
2022-12-19T15:39:33.640Z,23.55
2022-12-19T15:42:02.491Z,24.02
2022-12-19T15:44:32.841Z,30.77
2022-12-19T15:47:01.831Z,26.52
2022-12-19T15:49:29.611Z,24.52
2022-12-19T15:51:57.335Z,23.00
2022-12-19T15:57:22.100Z,28.62
2022-12-19T15:59:50.247Z,23.55
2022-12-19T16:02:23.407Z,24.17
2022-12-19T16:04:55.524Z,22.52
2022-12-19T16:07:27.813Z,24.25
2022-12-19T16:09:56.694Z,23.58
2022-12-19T16:12:37.813Z,22.50
2022-12-19T16:15:07.704Z,24.50
2022-12-19T16:17:35.452Z,22.10
2022-12-19T16:20:03.133Z,24.70
2022-12-19T16:22:31.052Z,24.00
2022-12-19T16:24:58.833Z,23.42
2022-12-19T16:27:31.885Z,22.85
2022-12-19T16:30:11.112Z,23.12
2022-12-19T16:32:41.262Z,21.12
2022-12-19T16:35:17.537Z,23.27
2022-12-19T16:37:52.085Z,21.12
2022-12-19T16:40:29.184Z,22.70
2022-12-19T16:43:29.858Z,20.60
2022-12-19T16:46:01.503Z,21.87
2022-12-19T16:48:31.208Z,25.83
2022-12-19T16:51:00.290Z,25.23
2022-12-19T16:53:28.171Z,27.10
2022-12-19T16:55:57.475Z,27.20
2022-12-19T16:58:28.936Z,28.98
2022-12-19T17:00:57.286Z,23.58
2022-12-19T17:03:42.233Z,25.52
2022-12-19T17:06:17.939Z,24.87
2022-12-19T17:08:46.578Z,22.92
2022-12-19T17:11:26.409Z,22.30
2022-12-19T17:14:01.674Z,22.50
2022-12-19T17:16:30.976Z,23.60
2022-12-19T17:19:00.178Z,21.95
2022-12-19T17:21:27.923Z,21.70
2022-12-19T17:23:55.721Z,21.40
2022-12-19T17:26:23.408Z,20.88
2022-12-19T17:28:51.146Z,22.75
2022-12-19T17:31:29.251Z,22.25
2022-12-19T17:33:58.897Z,20.73
2022-12-19T17:36:34.745Z,22.45
2022-12-19T17:39:18.764Z,24.52
2022-12-19T17:41:46.488Z,22.52
2022-12-19T17:44:14.198Z,21.08
2022-12-19T17:46:42.061Z,21.33
2022-12-19T17:49:39.688Z,21.25
2022-12-19T17:52:17.862Z,22.13
2022-12-19T17:54:46.149Z,21.48
2022-12-19T17:57:16.492Z,20.27
2022-12-19T17:59:44.638Z,21.52
2022-12-19T18:02:23.910Z,21.58
2022-12-19T18:04:52.335Z,21.20
2022-12-19T18:07:20.461Z,21.75
2022-12-19T18:09:49.764Z,23.30
2022-12-19T18:12:17.696Z,22.70
2022-12-19T18:14:45.476Z,21.00
2022-12-19T18:17:14.896Z,23.30
2022-12-19T18:19:42.669Z,22.83
2022-12-19T18:22:14.644Z,21.85
2022-12-19T18:24:42.970Z,23.15
2022-12-19T18:27:10.620Z,22.55
2022-12-19T18:29:38.343Z,20.98
2022-12-19T18:32:06.204Z,25.33
2022-12-19T18:34:34.732Z,22.92
2022-12-19T18:37:03.261Z,25.30
2022-12-19T18:39:33.067Z,22.77
2022-12-19T18:42:00.667Z,22.27
2022-12-19T18:44:28.555Z,29.92
2022-12-19T18:46:56.331Z,25.15
2022-12-19T18:49:24.143Z,24.10
2022-12-19T18:51:51.868Z,26.08
2022-12-19T18:54:22.502Z,23.60
2022-12-19T18:56:50.305Z,26.12
2022-12-19T18:59:18.176Z,27.92
2022-12-19T19:01:48.187Z,23.98
2022-12-19T19:04:18.766Z,25.25
2022-12-19T19:06:51.649Z,25.65
2022-12-19T19:09:21.567Z,25.50
2022-12-19T19:11:49.606Z,22.13
2022-12-19T19:14:17.362Z,26.85
2022-12-19T19:16:45.166Z,27.27
2022-12-19T19:19:18.875Z,23.52
2022-12-19T19:21:46.793Z,22.90
2022-12-19T19:24:22.846Z,22.05
2022-12-19T19:26:50.783Z,22.10
2022-12-19T19:29:20.835Z,23.33
2022-12-19T19:31:51.174Z,23.62
2022-12-19T19:34:29.863Z,24.52
2022-12-19T19:37:02.056Z,25.83
2022-12-19T19:39:34.399Z,27.50
2022-12-19T19:42:02.658Z,26.58
2022-12-19T19:44:31.175Z,28.20
2022-12-19T19:46:59.101Z,22.90
2022-12-19T19:49:26.929Z,26.77
2022-12-19T19:52:00.497Z,24.23
2022-12-19T19:54:30.335Z,25.30
2022-12-19T19:57:01.040Z,23.70
2022-12-19T19:59:32.416Z,23.95
2022-12-19T20:02:00.349Z,24.42
2022-12-19T20:04:28.234Z,29.02
2022-12-19T20:06:56.024Z,27.30
2022-12-19T20:09:23.691Z,25.10
2022-12-19T20:11:51.334Z,24.20
2022-12-19T20:14:19.054Z,28.73
2022-12-19T20:16:46.782Z,31.85
2022-12-19T20:19:16.745Z,26.15
2022-12-19T20:21:44.635Z,23.60
2022-12-19T20:24:13.849Z,26.50
2022-12-19T20:26:41.671Z,26.75
2022-12-19T20:29:09.611Z,24.92
2022-12-19T20:31:37.414Z,24.27
2022-12-19T20:34:05.931Z,22.77
2022-12-19T20:36:34.682Z,22.17
2022-12-19T20:39:02.494Z,23.95
2022-12-19T20:41:30.159Z,24.00
2022-12-19T20:43:58.521Z,24.05
2022-12-19T20:46:26.328Z,23.92
2022-12-19T20:48:54.127Z,21.75
2022-12-19T20:51:23.082Z,24.17
2022-12-19T20:53:54.770Z,25.75
2022-12-19T20:56:24.520Z,26.27
2022-12-19T20:58:52.730Z,24.65
2022-12-19T21:01:22.744Z,27.17
2022-12-19T21:03:51.789Z,22.23
2022-12-19T21:06:21.747Z,26.17
2022-12-19T21:08:49.796Z,24.63
2022-12-19T21:11:17.594Z,24.98
2022-12-19T21:13:45.641Z,24.02
2022-12-19T21:16:16.717Z,28.42
2022-12-19T21:18:46.080Z,28.23
2022-12-19T21:21:17.960Z,26.40
2022-12-19T21:23:46.921Z,27.23
2022-12-19T21:26:14.890Z,26.83
2022-12-19T21:28:43.187Z,29.12
2022-12-19T21:31:20.986Z,26.58
2022-12-19T21:33:49.406Z,26.60
2022-12-19T21:36:22.635Z,26.73
2022-12-19T21:38:52.870Z,28.02
2022-12-19T21:41:20.915Z,28.23
2022-12-19T21:43:52.824Z,29.77
2022-12-19T21:46:22.934Z,27.00
2022-12-19T21:48:52.379Z,30.20
2022-12-19T21:51:22.517Z,28.33
2022-12-19T21:53:55.219Z,27.30
2022-12-19T21:56:29.878Z,25.62
2022-12-19T21:59:03.412Z,26.90
2022-12-19T22:01:32.128Z,25.37
2022-12-19T22:04:08.693Z,24.92
2022-12-19T22:06:38.385Z,23.23
2022-12-19T22:09:08.433Z,29.05
2022-12-19T22:11:37.426Z,24.67
2022-12-19T22:14:06.199Z,22.73
2022-12-19T22:16:35.009Z,25.80
2022-12-19T22:19:03.625Z,26.45
2022-12-19T22:21:32.297Z,27.98
2022-12-19T22:24:01.490Z,25.25
2022-12-19T22:26:31.195Z,29.15
2022-12-19T22:28:59.867Z,24.50
2022-12-19T22:31:33.647Z,24.98
2022-12-19T22:34:11.386Z,24.55
2022-12-19T22:36:40.958Z,25.67
2022-12-19T22:39:12.115Z,24.45
2022-12-19T22:41:41.286Z,25.08
2022-12-19T22:44:15.632Z,23.40
2022-12-19T22:46:43.720Z,28.70
2022-12-19T22:49:13.322Z,24.48
2022-12-19T22:51:41.522Z,26.85
2022-12-19T22:54:10.141Z,25.33
2022-12-19T22:56:38.663Z,24.77
2022-12-19T22:59:08.814Z,24.35
2022-12-19T23:01:39.759Z,25.15
2022-12-19T23:04:09.524Z,27.15
2022-12-19T23:06:38.738Z,27.87
2022-12-19T23:09:08.204Z,25.20
2022-12-19T23:11:39.466Z,24.63
2022-12-19T23:14:09.089Z,26.35
2022-12-19T23:16:36.820Z,24.70
2022-12-19T23:19:06.372Z,24.52
2022-12-19T23:21:34.126Z,26.05
2022-12-19T23:24:01.915Z,23.92
2022-12-19T23:26:35.617Z,25.70
2022-12-19T23:29:06.487Z,25.60
2022-12-19T23:31:34.956Z,24.67
2022-12-19T23:34:03.192Z,26.45
2022-12-19T23:39:18.921Z,27.90
2022-12-19T23:41:46.625Z,25.02
2022-12-19T23:44:14.493Z,27.73
2022-12-19T23:46:42.478Z,26.37
2022-12-19T23:49:10.152Z,24.33
2022-12-19T23:51:37.869Z,30.70
2022-12-19T23:54:05.716Z,26.77
2022-12-19T23:56:33.745Z,22.85
2022-12-19T23:59:02.400Z,20.88
